createdAt,value
2022-08-03T06:53:38.825Z,100373.00
2022-08-03T06:53:50.057Z,100375.00
2022-08-03T06:54:01.556Z,100377.00
2022-08-03T06:54:12.789Z,100375.00
2022-08-03T06:54:24.285Z,100373.00
2022-08-03T06:54:34.829Z,100375.00
2022-08-03T06:54:46.315Z,100375.00
2022-08-03T06:54:57.545Z,100377.00
2022-08-03T06:55:09.049Z,100375.00
2022-08-03T06:55:20.283Z,100373.00
2022-08-03T06:55:31.801Z,100375.00
2022-08-03T06:55:43.050Z,100375.00
2022-08-03T06:55:55.303Z,100377.00
2022-08-03T06:56:06.917Z,100381.00
2022-08-03T06:56:18.183Z,100379.00
2022-08-03T06:56:29.689Z,100375.00
2022-08-03T06:56:40.927Z,100377.00
2022-08-03T06:56:52.419Z,100379.00
2022-08-03T06:57:03.711Z,100375.00
2022-08-03T06:57:15.253Z,100377.00
2022-08-03T06:57:26.487Z,100377.00
2022-08-03T06:57:37.988Z,100375.00
2022-08-03T06:57:49.231Z,100377.00
2022-08-03T06:58:03.497Z,100377.00
2022-08-03T06:58:12.782Z,100377.00
2022-08-03T06:58:24.268Z,100377.00
2022-08-03T06:58:35.524Z,100379.00
2022-08-03T06:58:47.038Z,100375.00
2022-08-03T06:58:58.280Z,100379.00
2022-08-03T06:59:09.778Z,100377.00
2022-08-03T07:00:08.543Z,100377.00
2022-08-03T07:00:09.250Z,100379.00
2022-08-03T07:00:10.768Z,100379.00
2022-08-03T07:00:10.769Z,100377.00
2022-08-03T07:00:12.463Z,100377.00
2022-08-03T07:00:19.631Z,100379.00
2022-08-03T07:00:30.874Z,100377.00
2022-08-03T07:00:42.381Z,100377.00
2022-08-03T07:00:53.626Z,100381.00
2022-08-03T07:01:05.209Z,100379.00
2022-08-03T07:01:18.474Z,100381.00
2022-08-03T07:01:28.075Z,100379.00
2022-08-03T07:01:39.568Z,100379.00
2022-08-03T07:01:50.903Z,100381.00
2022-08-03T07:02:02.459Z,100379.00
2022-08-03T07:02:18.977Z,100377.00
2022-08-03T07:02:28.287Z,100375.00
2022-08-03T07:02:37.737Z,100379.00
2022-08-03T07:02:49.328Z,100379.00
2022-08-03T07:02:59.556Z,100379.00
2022-08-03T07:03:10.796Z,100379.00
2022-08-03T07:03:22.303Z,100379.00
2022-08-03T07:03:33.558Z,100381.00
2022-08-03T07:03:52.293Z,100379.00
2022-08-03T07:03:56.967Z,100377.00
2022-08-03T07:04:08.218Z,100377.00
2022-08-03T07:04:19.740Z,100381.00
2022-08-03T07:04:30.957Z,100383.00
2022-08-03T07:04:42.446Z,100381.00
2022-08-03T07:04:53.691Z,100379.00
2022-08-03T07:05:05.195Z,100377.00
2022-08-03T07:05:16.436Z,100379.00
2022-08-03T07:05:27.939Z,100377.00
2022-08-03T07:05:39.168Z,100379.00
2022-08-03T07:05:50.673Z,100381.00
2022-08-03T07:06:01.998Z,100379.00
2022-08-03T07:06:12.571Z,100381.00
2022-08-03T07:06:24.064Z,100377.00
2022-08-03T07:06:35.309Z,100377.00
2022-08-03T07:06:46.821Z,100381.00
2022-08-03T07:06:58.071Z,100381.00
2022-08-03T07:07:09.570Z,100383.00
2022-08-03T07:07:21.094Z,100381.00
2022-08-03T07:07:32.592Z,100381.00
2022-08-03T07:07:43.822Z,100381.00
2022-08-03T07:07:55.331Z,100383.00
2022-08-03T07:08:06.597Z,100381.00
2022-08-03T07:08:18.077Z,100381.00
2022-08-03T07:08:33.900Z,100379.00
2022-08-03T07:08:41.442Z,100379.00
2022-08-03T07:08:56.497Z,100381.00
2022-08-03T07:09:04.658Z,100381.00
2022-08-03T07:09:15.947Z,100381.00
2022-08-03T07:09:27.463Z,100381.00
2022-08-03T07:09:38.671Z,100383.00
2022-08-03T07:09:57.425Z,100383.00
2022-08-03T07:10:02.725Z,100385.00
2022-08-03T07:10:13.957Z,100385.00
2022-08-03T07:10:25.442Z,100381.00
2022-08-03T07:10:36.674Z,100379.00
2022-08-03T07:10:48.179Z,100379.00
2022-08-03T07:10:59.414Z,100381.00
2022-08-03T07:11:10.892Z,100381.00
2022-08-03T07:11:22.177Z,100379.00
2022-08-03T07:11:33.654Z,100381.00
2022-08-03T07:11:44.897Z,100381.00
2022-08-03T07:11:56.397Z,100381.00
2022-08-03T07:12:07.649Z,100381.00
2022-08-03T07:12:19.229Z,100383.00
2022-08-03T07:12:30.598Z,100379.00
2022-08-03T07:12:52.727Z,100379.00
2022-08-03T07:12:55.775Z,100379.00
2022-08-03T07:13:05.401Z,100381.00
2022-08-03T07:13:16.889Z,100377.00
2022-08-03T07:13:28.130Z,100381.00
2022-08-03T07:13:39.625Z,100381.00
2022-08-03T07:13:50.867Z,100381.00
2022-08-03T07:14:02.369Z,100381.00
2022-08-03T07:14:13.613Z,100381.00
2022-08-03T07:14:25.109Z,100381.00
2022-08-03T07:14:36.351Z,100381.00
2022-08-03T07:14:47.884Z,100379.00
2022-08-03T07:15:01.899Z,100381.00
2022-08-03T07:15:09.724Z,100381.00
2022-08-03T07:15:53.921Z,100383.00
2022-08-03T07:15:55.293Z,100383.00
2022-08-03T07:15:55.557Z,100381.00
2022-08-03T07:15:57.445Z,100383.00
2022-08-03T07:16:08.723Z,100381.00
2022-08-03T07:16:20.258Z,100383.00
2022-08-03T07:16:31.486Z,100387.00
2022-08-03T07:16:42.985Z,100383.00
2022-08-03T07:16:54.258Z,100385.00
2022-08-03T07:17:11.705Z,100383.00
2022-08-03T07:17:17.691Z,100387.00
2022-08-03T07:17:28.976Z,100387.00
2022-08-03T07:17:40.469Z,100385.00
2022-08-03T07:17:51.710Z,100387.00
2022-08-03T07:18:03.212Z,100385.00
2022-08-03T07:18:14.455Z,100383.00
2022-08-03T07:18:29.794Z,100387.00
2022-08-03T07:18:37.016Z,100385.00
2022-08-03T07:18:48.236Z,100389.00
2022-08-03T07:18:59.725Z,100385.00
2022-08-03T07:19:10.971Z,100385.00
2022-08-03T07:19:22.467Z,100389.00
2022-08-03T07:19:33.711Z,100385.00
2022-08-03T07:19:45.199Z,100387.00
2022-08-03T07:19:56.457Z,100387.00
2022-08-03T07:20:07.944Z,100387.00
2022-08-03T07:20:19.186Z,100389.00
2022-08-03T07:20:32.630Z,100389.00
2022-08-03T07:20:41.833Z,100389.00
2022-08-03T07:20:53.325Z,100387.00
2022-08-03T07:21:04.563Z,100385.00
2022-08-03T07:21:16.057Z,100387.00
2022-08-03T07:21:27.293Z,100387.00
2022-08-03T07:21:38.794Z,100387.00
2022-08-03T07:21:50.034Z,100387.00
2022-08-03T07:22:02.279Z,100387.00
2022-08-03T07:22:11.216Z,100389.00
2022-08-03T07:22:22.445Z,100389.00
2022-08-03T07:22:33.946Z,100389.00
2022-08-03T07:22:45.195Z,100387.00
2022-08-03T07:22:56.679Z,100387.00
2022-08-03T07:23:07.917Z,100389.00
2022-08-03T07:23:19.570Z,100387.00
2022-08-03T07:23:30.777Z,100385.00
2022-08-03T07:23:42.249Z,100389.00
2022-08-03T07:23:53.487Z,100389.00
2022-08-03T07:24:04.982Z,100387.00
2022-08-03T07:24:16.227Z,100387.00
2022-08-03T07:24:27.728Z,100391.00
2022-08-03T07:24:37.762Z,100389.00
2022-08-03T07:24:49.247Z,100391.00
2022-08-03T07:25:00.484Z,100389.00
2022-08-03T07:25:11.972Z,100389.00
2022-08-03T07:25:23.207Z,100387.00
2022-08-03T07:25:34.693Z,100392.00
2022-08-03T07:25:45.312Z,100392.00
2022-08-03T07:25:56.819Z,100391.00
2022-08-03T07:26:08.035Z,100391.00
2022-08-03T07:26:19.531Z,100391.00
2022-08-03T07:26:30.810Z,100389.00
2022-08-03T07:26:42.293Z,100391.00
2022-08-03T07:26:53.525Z,100392.00
2022-08-03T07:27:05.026Z,100391.00
2022-08-03T07:27:16.251Z,100392.00
2022-08-03T07:27:27.749Z,100391.00
2022-08-03T07:27:39.000Z,100391.00
2022-08-03T07:27:51.867Z,100392.00
2022-08-03T07:28:00.977Z,100391.00
2022-08-03T07:28:12.477Z,100391.00
2022-08-03T07:28:23.722Z,100391.00
2022-08-03T07:28:35.219Z,100389.00
2022-08-03T07:28:46.459Z,100392.00
2022-08-03T07:28:57.942Z,100389.00
2022-08-03T07:29:10.952Z,100391.00
2022-08-03T07:29:21.100Z,100391.00
2022-08-03T07:29:34.703Z,100392.00
2022-08-03T07:29:43.908Z,100391.00
2022-08-03T07:29:55.415Z,100391.00
2022-08-03T07:30:06.626Z,100392.00
2022-08-03T07:30:18.124Z,100391.00
2022-08-03T07:30:29.361Z,100391.00
2022-08-03T07:30:40.849Z,100389.00
2022-08-03T07:30:52.092Z,100392.00
2022-08-03T07:31:03.579Z,100392.00
2022-08-03T07:31:14.829Z,100392.00
2022-08-03T07:31:26.356Z,100389.00
2022-08-03T07:31:37.591Z,100392.00
2022-08-03T07:31:49.096Z,100391.00
2022-08-03T07:32:00.344Z,100391.00
2022-08-03T07:32:11.868Z,100391.00
2022-08-03T07:32:23.080Z,100387.00
2022-08-03T07:32:34.596Z,100389.00
2022-08-03T07:32:50.232Z,100389.00
2022-08-03T07:32:57.767Z,100389.00
2022-08-03T07:33:09.000Z,100387.00
2022-08-03T07:33:20.503Z,100389.00
2022-08-03T07:33:31.740Z,100387.00
2022-08-03T07:33:43.222Z,100389.00
2022-08-03T07:33:54.453Z,100387.00
2022-08-03T07:34:05.955Z,100387.00
2022-08-03T07:34:17.183Z,100387.00
2022-08-03T07:34:28.682Z,100387.00
2022-08-03T07:34:39.921Z,100389.00
2022-08-03T07:34:51.410Z,100387.00
2022-08-03T07:35:02.673Z,100387.00
2022-08-03T07:35:24.173Z,100387.00
2022-08-03T07:35:26.551Z,100387.00
2022-08-03T07:35:37.792Z,100387.00
2022-08-03T07:35:49.293Z,100389.00
2022-08-03T07:36:00.532Z,100389.00
2022-08-03T07:36:12.026Z,100387.00
2022-08-03T07:36:23.301Z,100389.00
2022-08-03T07:36:34.794Z,100389.00
2022-08-03T07:36:46.038Z,100389.00
2022-08-03T07:36:57.531Z,100389.00
2022-08-03T07:37:08.770Z,100387.00
2022-08-03T07:37:20.300Z,100389.00
2022-08-03T07:37:31.499Z,100387.00
2022-08-03T07:37:42.995Z,100391.00
2022-08-03T07:37:55.312Z,100389.00
2022-08-03T07:38:06.518Z,100387.00
2022-08-03T07:38:21.023Z,100389.00
2022-08-03T07:38:28.251Z,100392.00
2022-08-03T07:38:39.496Z,100389.00
2022-08-03T07:38:51.013Z,100389.00
2022-08-03T07:39:17.479Z,100392.00
2022-08-03T07:39:17.582Z,100389.00
2022-08-03T07:39:25.212Z,100389.00
2022-08-03T07:39:36.458Z,100387.00
2022-08-03T07:39:47.938Z,100387.00
2022-08-03T07:39:59.189Z,100391.00
2022-08-03T07:40:10.715Z,100391.00
2022-08-03T07:40:21.981Z,100391.00
2022-08-03T07:40:33.523Z,100394.00
2022-08-03T07:40:46.461Z,100389.00
2022-08-03T07:40:55.624Z,100389.00
2022-08-03T07:41:07.110Z,100391.00
2022-08-03T07:41:18.398Z,100389.00
2022-08-03T07:41:29.877Z,100391.00
2022-08-03T07:41:41.358Z,100391.00
2022-08-03T07:41:53.395Z,100389.00
2022-08-03T07:42:04.628Z,100387.00
2022-08-03T07:42:16.293Z,100389.00
2022-08-03T07:42:27.627Z,100391.00
2022-08-03T07:42:39.129Z,100389.00
2022-08-03T07:42:52.129Z,100389.00
2022-08-03T07:43:00.428Z,100389.00
2022-08-03T07:43:11.667Z,100391.00
2022-08-03T07:43:23.160Z,100389.00
2022-08-03T07:43:34.403Z,100389.00
2022-08-03T07:43:45.969Z,100389.00
2022-08-03T07:43:55.976Z,100389.00
2022-08-03T07:44:07.201Z,100391.00
2022-08-03T07:44:18.688Z,100391.00
2022-08-03T07:44:29.912Z,100391.00
2022-08-03T07:44:41.417Z,100391.00
2022-08-03T07:44:52.670Z,100391.00
2022-08-03T07:45:04.180Z,100392.00
2022-08-03T07:45:16.837Z,100391.00
2022-08-03T07:45:26.066Z,100391.00
2022-08-03T07:45:37.573Z,100391.00
2022-08-03T07:45:48.849Z,100391.00
2022-08-03T07:46:00.408Z,100389.00
2022-08-03T07:46:11.679Z,100389.00
2022-08-03T07:46:23.164Z,100391.00
2022-08-03T07:46:33.717Z,100391.00
2022-08-03T07:46:44.961Z,100392.00
2022-08-03T07:46:56.712Z,100392.00
2022-08-03T07:47:08.000Z,100387.00
2022-08-03T07:47:22.308Z,100392.00
2022-08-03T07:47:35.725Z,100392.00
2022-08-03T07:47:41.701Z,100389.00
2022-08-03T07:47:54.209Z,100389.00
2022-08-03T07:48:11.644Z,100391.00
2022-08-03T07:48:18.847Z,100389.00
2022-08-03T07:48:27.963Z,100391.00
2022-08-03T07:48:39.458Z,100391.00
2022-08-03T07:48:50.699Z,100391.00
2022-08-03T07:49:02.303Z,100394.00
2022-08-03T07:49:13.542Z,100391.00
2022-08-03T07:49:25.139Z,100391.00
2022-08-03T07:49:36.472Z,100391.00
2022-08-03T07:49:47.951Z,100389.00
2022-08-03T07:49:59.212Z,100392.00
2022-08-03T07:50:10.714Z,100389.00
2022-08-03T07:50:22.255Z,100389.00
2022-08-03T07:50:33.893Z,100389.00
2022-08-03T07:50:45.146Z,100392.00
2022-08-03T07:50:56.649Z,100392.00
2022-08-03T07:51:07.886Z,100391.00
2022-08-03T07:51:19.411Z,100391.00
2022-08-03T07:51:30.617Z,100389.00
2022-08-03T07:51:42.104Z,100389.00
2022-08-03T07:51:53.352Z,100392.00
2022-08-03T07:52:04.854Z,100389.00
2022-08-03T07:52:16.376Z,100392.00
2022-08-03T07:52:28.522Z,100392.00
2022-08-03T07:52:40.076Z,100391.00
2022-08-03T07:52:51.319Z,100391.00
2022-08-03T07:53:02.808Z,100391.00
2022-08-03T07:53:14.052Z,100391.00
2022-08-03T07:53:25.572Z,100392.00
2022-08-03T07:53:37.885Z,100392.00
2022-08-03T07:53:48.727Z,100389.00
2022-08-03T07:53:59.869Z,100392.00
2022-08-03T07:54:11.203Z,100391.00
2022-08-03T07:54:22.708Z,100392.00
2022-08-03T07:54:33.945Z,100391.00
2022-08-03T07:54:45.465Z,100391.00
2022-08-03T07:54:56.695Z,100391.00
2022-08-03T07:55:08.196Z,100389.00
2022-08-03T07:55:19.437Z,100391.00
2022-08-03T07:55:30.939Z,100391.00
2022-08-03T07:55:42.179Z,100392.00
2022-08-03T07:55:53.683Z,100392.00
2022-08-03T07:56:05.747Z,100391.00
2022-08-03T07:56:16.890Z,100391.00
2022-08-03T07:56:28.124Z,100391.00
2022-08-03T07:56:39.610Z,100392.00
2022-08-03T07:56:50.869Z,100391.00
2022-08-03T07:57:02.367Z,100391.00
2022-08-03T07:57:13.593Z,100389.00
2022-08-03T07:57:25.086Z,100392.00
2022-08-03T07:57:36.343Z,100394.00
2022-08-03T07:57:47.839Z,100392.00
2022-08-03T07:57:59.076Z,100392.00
2022-08-03T07:58:10.561Z,100392.00
2022-08-03T07:58:24.213Z,100392.00
2022-08-03T07:58:33.564Z,100387.00
2022-08-03T07:58:45.049Z,100391.00
2022-08-03T07:58:56.295Z,100391.00
2022-08-03T07:59:07.776Z,100389.00
2022-08-03T07:59:19.015Z,100392.00
2022-08-03T07:59:30.510Z,100391.00
2022-08-03T08:00:01.924Z,100389.00
2022-08-03T08:00:02.022Z,100391.00
2022-08-03T08:00:06.312Z,100392.00
2022-08-03T08:00:17.550Z,100391.00
2022-08-03T08:00:29.062Z,100391.00
2022-08-03T08:00:40.283Z,100391.00
2022-08-03T08:00:51.889Z,100391.00
2022-08-03T08:01:03.209Z,100389.00
2022-08-03T08:01:14.979Z,100389.00
2022-08-03T08:01:26.507Z,100391.00
2022-08-03T08:01:38.151Z,100391.00
2022-08-03T08:01:49.468Z,100389.00
2022-08-03T08:02:00.985Z,100389.00
2022-08-03T08:02:12.225Z,100391.00
2022-08-03T08:02:23.712Z,100389.00
2022-08-03T08:02:34.952Z,100389.00
2022-08-03T08:02:46.456Z,100387.00
2022-08-03T08:02:57.691Z,100391.00
2022-08-03T08:03:09.249Z,100387.00
2022-08-03T08:03:20.470Z,100391.00
2022-08-03T08:03:52.277Z,100389.00
2022-08-03T08:03:52.578Z,100391.00
2022-08-03T08:03:55.813Z,100389.00
2022-08-03T08:04:07.080Z,100387.00
2022-08-03T08:04:18.561Z,100389.00
2022-08-03T08:04:29.839Z,100387.00
2022-08-03T08:04:41.330Z,100387.00
2022-08-03T08:04:52.566Z,100387.00
2022-08-03T08:05:05.899Z,100391.00
2022-08-03T08:05:15.244Z,100387.00
2022-08-03T08:05:26.788Z,100389.00
2022-08-03T08:05:38.013Z,100391.00
2022-08-03T08:05:49.523Z,100389.00
2022-08-03T08:06:00.757Z,100387.00
2022-08-03T08:06:12.253Z,100389.00
2022-08-03T08:06:23.529Z,100391.00
2022-08-03T08:06:35.007Z,100387.00
2022-08-03T08:06:46.242Z,100389.00
2022-08-03T08:06:57.722Z,100389.00
2022-08-03T08:07:08.957Z,100389.00
2022-08-03T08:07:20.715Z,100389.00
2022-08-03T08:07:31.983Z,100389.00
2022-08-03T08:07:43.475Z,100387.00
2022-08-03T08:07:54.709Z,100387.00
2022-08-03T08:08:06.207Z,100389.00
2022-08-03T08:08:17.463Z,100389.00
2022-08-03T08:08:28.957Z,100389.00
2022-08-03T08:08:40.202Z,100389.00
2022-08-03T08:08:51.701Z,100389.00
2022-08-03T08:09:02.946Z,100387.00
2022-08-03T08:09:14.433Z,100385.00
2022-08-03T08:09:25.659Z,100387.00
2022-08-03T08:09:36.042Z,100387.00
2022-08-03T08:09:47.280Z,100389.00
2022-08-03T08:09:58.770Z,100389.00
2022-08-03T08:10:10.232Z,100387.00
2022-08-03T08:10:21.830Z,100387.00
2022-08-03T08:10:33.064Z,100389.00
2022-08-03T08:10:57.946Z,100385.00
2022-08-03T08:10:57.953Z,100385.00
2022-08-03T08:11:07.654Z,100385.00
2022-08-03T08:11:19.153Z,100383.00
2022-08-03T08:11:30.401Z,100387.00
2022-08-03T08:11:41.891Z,100387.00
2022-08-03T08:11:53.153Z,100385.00
2022-08-03T08:12:04.624Z,100385.00
2022-08-03T08:12:16.935Z,100391.00
2022-08-03T08:12:28.612Z,100385.00
2022-08-03T08:12:39.856Z,100387.00
2022-08-03T08:12:51.351Z,100389.00
2022-08-03T08:13:02.601Z,100385.00
2022-08-03T08:13:14.100Z,100383.00
2022-08-03T08:13:25.335Z,100385.00
2022-08-03T08:13:36.877Z,100389.00
2022-08-03T08:13:48.125Z,100387.00
2022-08-03T08:13:59.625Z,100387.00
2022-08-03T08:14:10.862Z,100387.00
2022-08-03T08:14:22.355Z,100385.00
2022-08-03T08:14:33.594Z,100385.00
2022-08-03T08:14:45.094Z,100383.00
2022-08-03T08:14:56.340Z,100387.00
2022-08-03T08:15:07.863Z,100387.00
2022-08-03T08:15:19.093Z,100387.00
2022-08-03T08:15:30.588Z,100387.00
2022-08-03T08:15:42.573Z,100385.00
2022-08-03T08:15:52.786Z,100389.00
2022-08-03T08:16:04.300Z,100387.00
2022-08-03T08:16:15.521Z,100387.00
2022-08-03T08:16:27.026Z,100385.00
2022-08-03T08:16:38.243Z,100385.00
2022-08-03T08:16:49.764Z,100392.00
2022-08-03T08:17:04.426Z,100385.00
2022-08-03T08:17:12.935Z,100385.00
2022-08-03T08:17:24.174Z,100387.00
2022-08-03T08:17:35.667Z,100383.00
2022-08-03T08:17:46.926Z,100383.00
2022-08-03T08:17:58.415Z,100387.00
2022-08-03T08:18:09.661Z,100387.00
2022-08-03T08:18:21.189Z,100385.00
2022-08-03T08:18:32.413Z,100387.00
2022-08-03T08:18:43.912Z,100385.00
2022-08-03T08:18:55.148Z,100387.00
2022-08-03T08:19:06.649Z,100387.00
2022-08-03T08:19:17.891Z,100389.00
2022-08-03T08:19:28.127Z,100389.00
2022-08-03T08:19:38.360Z,100389.00
2022-08-03T08:19:51.868Z,100383.00
2022-08-03T08:20:00.380Z,100389.00
2022-08-03T08:20:10.403Z,100387.00
2022-08-03T08:20:28.373Z,100389.00
2022-08-03T08:20:34.883Z,100389.00
2022-08-03T08:20:44.895Z,100387.00
2022-08-03T08:20:56.483Z,100387.00
2022-08-03T08:21:08.831Z,100389.00
2022-08-03T08:21:19.136Z,100387.00
2022-08-03T08:21:53.199Z,100385.00
2022-08-03T08:21:54.054Z,100385.00
2022-08-03T08:22:02.834Z,100385.00
2022-08-03T08:22:06.422Z,100385.00
2022-08-03T08:22:18.502Z,100387.00
2022-08-03T08:22:31.432Z,100385.00
2022-08-03T08:22:40.626Z,100387.00
2022-08-03T08:22:52.732Z,100385.00
2022-08-03T08:23:12.134Z,100383.00
2022-08-03T08:23:38.019Z,100387.00
2022-08-03T08:23:42.388Z,100387.00
2022-08-03T08:23:42.531Z,100385.00
2022-08-03T08:23:57.782Z,100387.00
2022-08-03T08:24:03.158Z,100385.00
2022-08-03T08:24:19.796Z,100385.00
2022-08-03T08:24:26.332Z,100385.00
2022-08-03T08:24:37.576Z,100385.00
2022-08-03T08:24:48.592Z,100387.00
2022-08-03T08:25:01.269Z,100387.00
2022-08-03T08:25:10.613Z,100387.00
2022-08-03T08:25:22.135Z,100387.00
2022-08-03T08:25:33.539Z,100383.00
2022-08-03T08:25:45.041Z,100385.00
2022-08-03T08:25:56.261Z,100383.00
2022-08-03T08:26:07.744Z,100385.00
2022-08-03T08:26:18.987Z,100385.00
2022-08-03T08:26:30.495Z,100385.00
2022-08-03T08:26:41.758Z,100385.00
2022-08-03T08:26:53.240Z,100389.00
2022-08-03T08:27:04.486Z,100387.00
2022-08-03T08:27:15.985Z,100387.00
2022-08-03T08:27:27.233Z,100385.00
2022-08-03T08:28:22.392Z,100387.00
2022-08-03T08:28:29.508Z,100385.00
2022-08-03T08:28:30.318Z,100385.00
2022-08-03T08:28:31.033Z,100387.00
2022-08-03T08:28:31.518Z,100383.00
2022-08-03T08:28:38.409Z,100385.00
2022-08-03T08:28:49.665Z,100387.00
2022-08-03T08:29:01.155Z,100385.00
2022-08-03T08:29:12.388Z,100387.00
2022-08-03T08:29:23.887Z,100385.00
2022-08-03T08:29:35.126Z,100383.00
2022-08-03T08:29:52.595Z,100385.00
2022-08-03T08:30:07.241Z,100383.00
2022-08-03T08:30:13.053Z,100387.00
2022-08-03T08:30:21.866Z,100383.00
2022-08-03T08:30:33.090Z,100389.00
2022-08-03T08:30:44.585Z,100385.00
2022-08-03T08:30:55.827Z,100385.00
2022-08-03T08:31:07.322Z,100385.00
2022-08-03T08:31:18.562Z,100383.00
2022-08-03T08:31:30.052Z,100385.00
2022-08-03T08:31:41.296Z,100385.00
2022-08-03T08:31:52.806Z,100385.00
2022-08-03T08:32:04.040Z,100383.00
2022-08-03T08:32:15.789Z,100383.00
2022-08-03T08:32:27.192Z,100385.00
2022-08-03T08:32:38.671Z,100383.00
2022-08-03T08:32:49.922Z,100381.00
2022-08-03T08:33:01.432Z,100383.00
2022-08-03T08:33:15.852Z,100385.00
2022-08-03T08:33:25.861Z,100381.00
2022-08-03T08:34:02.699Z,100383.00
2022-08-03T08:34:03.995Z,100383.00
2022-08-03T08:34:04.121Z,100381.00
2022-08-03T08:34:10.814Z,100385.00
2022-08-03T08:34:22.055Z,100381.00
2022-08-03T08:34:33.541Z,100383.00
2022-08-03T08:34:44.773Z,100381.00
2022-08-03T08:34:56.261Z,100387.00
2022-08-03T08:35:07.501Z,100383.00
2022-08-03T08:35:18.995Z,100383.00
2022-08-03T08:35:30.260Z,100385.00
2022-08-03T08:35:41.721Z,100383.00
2022-08-03T08:35:52.971Z,100381.00
2022-08-03T08:36:04.453Z,100385.00
2022-08-03T08:36:15.899Z,100383.00
2022-08-03T08:36:27.405Z,100383.00
2022-08-03T08:36:38.650Z,100381.00
2022-08-03T08:36:50.149Z,100383.00
2022-08-03T08:37:01.388Z,100381.00
2022-08-03T08:37:12.890Z,100381.00
2022-08-03T08:37:24.135Z,100379.00
2022-08-03T08:37:35.662Z,100379.00
2022-08-03T08:37:51.241Z,100379.00
2022-08-03T08:37:58.420Z,100379.00
2022-08-03T08:38:10.350Z,100379.00
2022-08-03T08:38:21.851Z,100379.00
2022-08-03T08:38:33.085Z,100381.00
2022-08-03T08:38:44.769Z,100381.00
2022-08-03T08:38:56.064Z,100381.00
2022-08-03T08:39:07.537Z,100381.00
2022-08-03T08:39:18.783Z,100379.00
2022-08-03T08:39:30.690Z,100381.00
2022-08-03T08:39:41.962Z,100381.00
2022-08-03T08:39:53.452Z,100379.00
2022-08-03T08:40:04.732Z,100377.00
2022-08-03T08:40:16.224Z,100379.00
2022-08-03T08:40:27.461Z,100383.00
2022-08-03T08:40:38.996Z,100383.00
2022-08-03T08:40:50.227Z,100385.00
2022-08-03T08:41:01.734Z,100383.00
2022-08-03T08:41:12.979Z,100383.00
2022-08-03T08:41:24.469Z,100383.00
2022-08-03T08:41:36.442Z,100379.00
2022-08-03T08:41:49.639Z,100383.00
2022-08-03T08:41:59.578Z,100381.00
2022-08-03T08:42:10.819Z,100379.00
2022-08-03T08:42:22.340Z,100383.00
2022-08-03T08:42:33.582Z,100381.00
2022-08-03T08:42:57.983Z,100381.00
2022-08-03T08:42:58.689Z,100383.00
2022-08-03T08:43:08.057Z,100381.00
2022-08-03T08:43:19.549Z,100379.00
2022-08-03T08:43:30.792Z,100381.00
2022-08-03T08:43:42.296Z,100383.00
2022-08-03T08:43:58.155Z,100381.00
2022-08-03T08:44:05.451Z,100383.00
2022-08-03T08:44:16.707Z,100383.00
2022-08-03T08:44:28.230Z,100381.00
2022-08-03T08:44:39.457Z,100383.00
2022-08-03T08:44:50.955Z,100383.00
2022-08-03T08:45:02.299Z,100383.00
2022-08-03T08:45:13.759Z,100383.00
2022-08-03T08:45:25.005Z,100381.00
2022-08-03T08:45:36.507Z,100385.00
2022-08-03T08:45:47.752Z,100385.00
2022-08-03T08:45:59.254Z,100383.00
2022-08-03T08:46:10.483Z,100385.00
2022-08-03T08:46:23.762Z,100383.00
2022-08-03T08:46:33.186Z,100385.00
2022-08-03T08:46:44.698Z,100383.00
2022-08-03T08:46:55.938Z,100385.00
2022-08-03T08:47:07.487Z,100385.00
2022-08-03T08:47:18.718Z,100385.00
2022-08-03T08:47:30.217Z,100385.00
2022-08-03T08:47:50.983Z,100385.00
2022-08-03T08:47:58.243Z,100385.00
2022-08-03T08:48:08.351Z,100385.00
2022-08-03T08:48:17.672Z,100387.00
2022-08-03T08:48:29.143Z,100387.00
2022-08-03T08:48:40.383Z,100385.00
2022-08-03T08:48:51.905Z,100387.00
2022-08-03T08:49:04.669Z,100385.00
2022-08-03T08:49:14.415Z,100383.00
2022-08-03T08:49:26.013Z,100383.00
2022-08-03T08:49:37.347Z,100387.00
2022-08-03T08:50:04.024Z,100387.00
2022-08-03T08:50:09.855Z,100385.00
2022-08-03T08:50:27.696Z,100387.00
2022-08-03T08:50:27.978Z,100385.00
2022-08-03T08:50:35.183Z,100385.00
2022-08-03T08:50:46.425Z,100389.00
2022-08-03T08:50:57.925Z,100387.00
2022-08-03T08:51:09.169Z,100387.00
2022-08-03T08:51:21.328Z,100385.00
2022-08-03T08:51:54.685Z,100387.00
2022-08-03T08:51:59.144Z,100385.00
2022-08-03T08:52:00.770Z,100385.00
2022-08-03T08:52:24.954Z,100387.00
2022-08-03T08:52:25.186Z,100389.00
2022-08-03T08:52:32.332Z,100385.00
2022-08-03T08:52:43.581Z,100387.00
2022-08-03T08:52:55.077Z,100387.00
2022-08-03T08:53:06.313Z,100387.00
2022-08-03T08:53:18.257Z,100387.00
2022-08-03T08:53:28.787Z,100387.00
2022-08-03T08:53:40.330Z,100387.00
2022-08-03T08:53:51.574Z,100387.00
2022-08-03T08:54:03.076Z,100389.00
2022-08-03T08:54:14.313Z,100389.00
2022-08-03T08:54:25.799Z,100387.00
2022-08-03T08:54:37.037Z,100389.00
2022-08-03T08:54:48.535Z,100387.00
2022-08-03T08:55:00.141Z,100387.00
2022-08-03T08:55:11.806Z,100389.00
2022-08-03T08:55:23.017Z,100389.00
2022-08-03T08:55:58.446Z,100392.00
2022-08-03T08:55:58.631Z,100391.00
2022-08-03T08:56:00.303Z,100392.00
2022-08-03T08:56:09.983Z,100391.00
2022-08-03T08:56:21.447Z,100389.00
2022-08-03T08:56:32.675Z,100389.00
2022-08-03T08:56:44.224Z,100387.00
2022-08-03T08:56:55.421Z,100389.00
2022-08-03T08:57:21.348Z,100389.00
2022-08-03T08:57:40.767Z,100387.00
2022-08-03T08:57:42.306Z,100389.00
2022-08-03T08:57:43.620Z,100391.00
2022-08-03T08:57:52.762Z,100391.00
2022-08-03T08:58:04.260Z,100389.00
2022-08-03T08:58:15.503Z,100389.00
2022-08-03T08:58:27.437Z,100391.00
2022-08-03T08:58:38.916Z,100389.00
2022-08-03T08:58:50.429Z,100389.00
2022-08-03T08:59:01.656Z,100389.00
2022-08-03T08:59:12.752Z,100389.00
2022-08-03T08:59:24.266Z,100389.00
2022-08-03T08:59:48.381Z,100391.00
2022-08-03T08:59:48.503Z,100387.00
2022-08-03T08:59:58.705Z,100391.00
2022-08-03T09:00:10.200Z,100387.00
2022-08-03T09:00:21.441Z,100389.00
2022-08-03T09:00:32.931Z,100387.00
2022-08-03T09:00:44.215Z,100387.00
2022-08-03T09:00:55.734Z,100389.00
2022-08-03T09:01:07.066Z,100387.00
2022-08-03T09:01:18.607Z,100391.00
2022-08-03T09:01:29.980Z,100389.00
2022-08-03T09:01:41.522Z,100389.00
2022-08-03T09:01:52.757Z,100389.00
2022-08-03T09:02:04.255Z,100387.00
2022-08-03T09:02:16.004Z,100387.00
2022-08-03T09:02:27.670Z,100385.00
2022-08-03T09:02:38.936Z,100387.00
2022-08-03T09:02:50.423Z,100389.00
2022-08-03T09:03:01.650Z,100387.00
2022-08-03T09:03:13.881Z,100385.00
2022-08-03T09:03:30.442Z,100387.00
2022-08-03T09:03:37.740Z,100385.00
2022-08-03T09:03:48.981Z,100389.00